Airfield :
LOGIN :

Register | Disclaimer

   EN    FR    IT 

 










Legend :    VFR   Marginal VFR   IFR   Intensive IFR   Very Intensive IFR
Visi :
Ceiling :
>= 8 km
>= 3000ft
5 to 8 km
1000 to 3000 ft
1500m to 5 km
500 to 1000 ft
800 to 1500m
200 to 500 ft
< 800m
< 200 ft
Symbols :   Thunderstorms  Fog  Heavy snow  Heavy precipitations  Wind > 20 kt
SIGMETs :     Misc.  Thunderstorms  Icing  Turbulence  Mountain Waves  Volcanic Ashes






- Airport Elevation : 405 ft
- IATA code : ODH


EGVO - RAF Odiham

CURRENT METAR :
  • 241020Z 03002KT 9999 OVC010 05/05 Q1023 NOSIG RMK GRN GRN

EXPIRED METARs :
  • 240950Z 35001KT 9999 OVC009 05/05 Q1023 TEMPO 5000 -DZ RMK GRN TEMPO GRN
  • 240921Z 36001KT 7000 -DZ OVC008 05/05 Q1023 TEMPO 3000 -DZ SCT005 RMK GRN TEMPO YLO1
  • 240850Z 36003KT 6000 BR FEW002 OVC008 05/05 Q1023 TEMPO 3000 -DZ SCT005 RMK GRN TEMPO YLO1
  • 240820Z 35005KT 3500 BR BKN002 BKN010 05/05 Q1023 TEMPO 2000 -DZ RMK AMB TEMPO AMB
  • 240750Z 34005KT 3000 BR BKN002 BKN009 05/05 Q1023 TEMPO 2000 -DZ RMK AMB TEMPO AMB

TAF AMD TAF EGVO
Valid from the 24 at 10:00 until the 24 at 21:00 UTC


241007Z 2410/2421 09004KT 9999 BKN012
PROB30
TEMPO 2410/2414 5000 -DZ SCT005 BKN010
PROB30 2418/2421 FEW012 BKN020



MET'MAP, your aeronautical weather chart ! - Copyright ORBIFLY December 2007 - Disclaimer

ORBIFLY MET'MAP TEAM :

Programming & Development : Alexandra Zaïnal
Concept & original design : Baudouin d'Aumeries
Assistance for programming : Marc-Olivier Méhu
Technical & hardware support : Manuel Goepfert

Contact : metmap@orbifly.com




SOURCES & CREDITS :

   NOAA